Time;durP1;ratioP1;P1;durP2;ratioP2;P2;SDS_P1;SDS_P2;PMS_P1;PMS_P2;Temp;Humidity;BMP_temperature;BMP_pressure;BME280_temperature;BME280_humidity;BME280_pressure;Samples;Min_cycle;Max_cycle;Signal;HPM_P1;HPM_P2
2021/09/04 00:00:27;;;;;;;23.13;18.00;;;16.40;99.90;;;;;;5077011;28;20523;-71
2021/09/04 00:02:55;;;;;;;25.83;17.27;;;16.40;99.90;;;;;;5077103;28;20800;-71
2021/09/04 00:05:22;;;;;;;24.90;17.07;;;16.30;99.90;;;;;;5076905;28;20455;-71
2021/09/04 00:07:48;;;;;;;21.97;16.87;;;16.20;99.90;;;;;;5076821;28;20899;-71
2021/09/04 00:10:15;;;;;;;25.52;18.45;;;16.20;99.90;;;;;;5076210;28;20580;-71
2021/09/04 00:12:42;;;;;;;24.13;15.80;;;16.20;99.90;;;;;;5076221;28;20287;-71
2021/09/04 00:15:10;;;;;;;25.47;17.37;;;16.20;99.90;;;;;;5076274;28;20462;-71
2021/09/04 00:17:39;;;;;;;23.83;17.05;;;16.20;99.90;;;;;;5075805;28;20942;-71
2021/09/04 00:20:09;;;;;;;24.00;17.13;;;16.20;99.90;;;;;;5075929;28;20895;-71
2021/09/04 00:22:36;;;;;;;20.80;16.40;;;16.20;99.90;;;;;;5076103;28;20465;-71
2021/09/04 00:25:03;;;;;;;25.17;16.50;;;16.20;99.90;;;;;;5076367;28;20465;-71
2021/09/04 00:27:30;;;;;;;22.80;16.80;;;16.20;99.90;;;;;;5075481;28;20832;-71
2021/09/04 00:29:57;;;;;;;23.77;16.43;;;16.10;99.90;;;;;;5075691;28;20915;-72
2021/09/04 00:32:24;;;;;;;22.90;16.90;;;16.00;99.90;;;;;;5075664;28;20465;-72
2021/09/04 00:34:51;;;;;;;22.80;15.23;;;16.00;99.90;;;;;;5075674;28;20200;-71
2021/09/04 00:37:19;;;;;;;24.03;16.57;;;16.00;99.90;;;;;;5075640;28;20534;-70
2021/09/04 00:39:46;;;;;;;29.30;17.57;;;16.10;99.90;;;;;;5075850;28;20780;-70
2021/09/04 00:42:14;;;;;;;26.07;16.67;;;16.00;99.90;;;;;;5075700;28;20468;-71
2021/09/04 00:44:40;;;;;;;24.83;17.63;;;16.00;99.90;;;;;;5075665;28;20464;-71
2021/09/04 00:47:08;;;;;;;27.87;17.17;;;16.00;99.90;;;;;;5075381;28;20969;-71
2021/09/04 00:49:36;;;;;;;21.85;16.67;;;15.90;99.90;;;;;;5075580;28;20883;-71
2021/09/04 00:52:04;;;;;;;24.50;17.23;;;15.90;99.90;;;;;;5075438;28;20401;-71
2021/09/04 00:54:32;;;;;;;24.15;16.48;;;15.90;99.90;;;;;;5075719;28;20459;-71
2021/09/04 00:56:59;;;;;;;26.37;16.70;;;15.80;99.90;;;;;;5075349;28;20213;-71
2021/09/04 00:59:27;;;;;;;23.10;16.50;;;15.80;99.90;;;;;;5075211;28;20808;-71
2021/09/04 01:01:54;;;;;;;24.27;17.60;;;15.80;99.90;;;;;;5074964;28;20511;-71
2021/09/04 01:04:21;;;;;;;27.40;18.57;;;15.80;99.90;;;;;;5075334;28;20458;-71
2021/09/04 01:06:49;;;;;;;25.53;17.20;;;15.80;99.90;;;;;;5075082;28;20497;-72
2021/09/04 01:09:16;;;;;;;23.87;16.90;;;15.80;99.90;;;;;;5075234;28;20471;-71
2021/09/04 01:11:44;;;;;;;28.07;17.07;;;15.70;99.90;;;;;;5075480;28;20508;-71
2021/09/04 01:14:13;;;;;;;30.23;18.90;;;15.70;99.90;;;;;;5075299;28;20942;-71
2021/09/04 01:16:42;;;;;;;24.87;16.50;;;15.70;99.90;;;;;;5075134;28;20721;-71
2021/09/04 01:19:10;;;;;;;24.90;16.97;;;15.70;99.90;;;;;;5075526;28;20459;-71
2021/09/04 01:21:38;;;;;;;28.77;18.50;;;15.70;99.90;;;;;;5074915;28;20533;-71
2021/09/04 01:24:06;;;;;;;26.43;18.33;;;15.60;99.90;;;;;;5074879;28;20462;-71
2021/09/04 01:26:35;;;;;;;24.42;17.83;;;15.60;99.90;;;;;;5075089;28;20462;-71
2021/09/04 01:29:02;;;;;;;27.00;17.47;;;15.60;99.90;;;;;;5074877;28;20918;-71
2021/09/04 01:31:29;;;;;;;24.33;16.95;;;15.60;99.90;;;;;;5075297;28;20790;-70
2021/09/04 01:33:56;;;;;;;25.20;18.60;;;15.60;99.90;;;;;;5074971;28;20200;-70
2021/09/04 01:36:33;;;;;;;23.90;17.60;;;15.60;99.90;;;;;;5075163;28;20458;-70
2021/09/04 01:39:00;;;;;;;25.93;17.00;;;15.60;99.90;;;;;;5074929;28;20497;-71
2021/09/04 01:41:27;;;;;;;24.63;17.90;;;15.60;99.90;;;;;;5074704;28;20482;-71
2021/09/04 01:43:57;;;;;;;25.50;17.70;;;15.50;99.90;;;;;;5074900;28;20458;-71
2021/09/04 01:46:24;;;;;;;22.73;16.33;;;15.50;99.90;;;;;;5075547;28;20632;-71
2021/09/04 01:48:52;;;;;;;27.60;18.40;;;15.40;99.90;;;;;;5074880;28;20466;-71
2021/09/04 01:51:19;;;;;;;26.90;17.50;;;15.40;99.90;;;;;;5074624;28;20804;-71
2021/09/04 01:53:46;;;;;;;27.07;17.83;;;15.40;99.90;;;;;;5075116;28;20562;-71
2021/09/04 01:56:13;;;;;;;32.43;18.70;;;15.30;99.90;;;;;;5075085;28;20488;-71
2021/09/04 01:58:40;;;;;;;24.30;17.60;;;15.30;99.90;;;;;;5075038;28;20455;-71
2021/09/04 02:01:08;;;;;;;26.63;17.20;;;15.30;99.90;;;;;;5075404;28;20455;-71
2021/09/04 02:03:35;;;;;;;21.50;16.95;;;15.30;99.90;;;;;;5075586;28;20454;-71
2021/09/04 02:06:02;;;;;;;23.27;16.20;;;15.20;99.90;;;;;;5075277;28;20287;-72
2021/09/04 02:08:28;;;;;;;22.73;17.30;;;15.20;99.90;;;;;;5075556;28;20458;-71
2021/09/04 02:10:55;;;;;;;24.13;17.83;;;15.30;99.90;;;;;;5075120;28;20482;-72
2021/09/04 02:13:22;;;;;;;27.93;17.50;;;15.20;99.90;;;;;;5079889;28;20461;-72
2021/09/04 02:15:49;;;;;;;28.43;17.80;;;15.20;99.90;;;;;;5079490;28;20468;-72
2021/09/04 02:18:17;;;;;;;24.23;17.30;;;15.20;99.90;;;;;;5079868;28;20929;-72
2021/09/04 02:20:46;;;;;;;25.92;17.58;;;15.20;99.90;;;;;;5079784;28;20918;-72
2021/09/04 02:23:12;;;;;;;29.03;17.27;;;15.20;99.90;;;;;;5079229;28;20200;-71
2021/09/04 02:25:39;;;;;;;25.37;18.50;;;15.20;99.90;;;;;;5080164;28;20535;-71
2021/09/04 02:28:06;;;;;;;28.27;18.50;;;15.20;99.90;;;;;;5079938;28;20508;-71
2021/09/04 02:30:33;;;;;;;27.97;18.23;;;15.10;99.90;;;;;;5079448;28;20466;-71
2021/09/04 02:32:59;;;;;;;26.17;17.35;;;15.00;99.90;;;;;;5081066;28;20458;-72
2021/09/04 02:35:27;;;;;;;24.90;17.50;;;15.00;99.90;;;;;;5079736;28;20211;-71
2021/09/04 02:37:54;;;;;;;21.20;16.20;;;15.10;99.90;;;;;;5078457;28;20515;-71
2021/09/04 02:40:21;;;;;;;27.13;17.60;;;15.10;99.90;;;;;;5078762;28;20592;-71
2021/09/04 02:42:49;;;;;;;26.20;17.23;;;15.00;99.90;;;;;;5078570;28;20450;-71
2021/09/04 02:45:16;;;;;;;27.43;17.77;;;14.90;99.90;;;;;;5078800;28;20461;-70
2021/09/04 02:47:43;;;;;;;23.33;16.30;;;14.90;99.90;;;;;;5077964;28;20447;-70
2021/09/04 02:50:10;;;;;;;25.50;17.00;;;14.90;99.90;;;;;;5078470;28;20497;-70
2021/09/04 02:52:38;;;;;;;24.00;17.27;;;14.90;99.90;;;;;;5078010;28;20474;-70
2021/09/04 02:55:06;;;;;;;27.43;17.07;;;14.80;99.90;;;;;;5078201;28;20526;-71
2021/09/04 02:57:33;;;;;;;24.98;17.83;;;14.80;99.90;;;;;;5078302;28;20454;-71
2021/09/04 02:59:59;;;;;;;27.77;16.87;;;14.80;99.90;;;;;;5078353;28;20265;-70
2021/09/04 03:02:26;;;;;;;19.73;15.30;;;14.80;99.90;;;;;;5081564;28;20461;-73
2021/09/04 03:04:53;;;;;;;21.40;15.80;;;14.80;99.90;;;;;;5082774;28;20488;-73
2021/09/04 03:07:19;;;;;;;29.33;17.43;;;14.80;99.90;;;;;;5082036;28;20840;-73
2021/09/04 03:09:50;;;;;;;26.70;17.17;;;14.80;99.90;;;;;;5082408;28;20828;-73
2021/09/04 03:12:17;;;;;;;24.27;16.57;;;14.80;99.90;;;;;;5081724;28;20481;-73
2021/09/04 03:14:46;;;;;;;28.97;17.57;;;14.70;99.90;;;;;;5082192;28;20484;-73
2021/09/04 03:17:13;;;;;;;25.40;16.93;;;14.70;99.90;;;;;;5082416;28;20454;-73
2021/09/04 03:19:42;;;;;;;21.45;16.60;;;14.60;99.90;;;;;;5082263;28;20462;-73
2021/09/04 03:22:08;;;;;;;22.40;16.40;;;14.60;99.90;;;;;;5081568;28;20199;-73
2021/09/04 03:24:36;;;;;;;25.30;16.70;;;14.50;99.90;;;;;;5081085;28;20469;-74
2021/09/04 03:27:06;;;;;;;28.97;17.53;;;14.50;99.90;;;;;;5081982;28;20827;-73
2021/09/04 03:29:34;;;;;;;27.90;17.53;;;14.50;99.90;;;;;;5082267;28;20458;-73
2021/09/04 03:32:01;;;;;;;28.47;19.17;;;14.50;99.90;;;;;;5080445;28;20478;-73
2021/09/04 03:34:30;;;;;;;26.30;17.80;;;14.50;99.90;;;;;;5081534;28;20470;-73
2021/09/04 03:36:56;;;;;;;28.43;18.77;;;14.40;99.90;;;;;;5081321;28;20458;-73
2021/09/04 03:39:23;;;;;;;27.97;18.10;;;14.30;99.90;;;;;;5082560;28;20485;-73
2021/09/04 03:41:50;;;;;;;24.80;17.10;;;14.30;99.90;;;;;;5082484;28;20486;-73
2021/09/04 03:44:19;;;;;;;25.13;17.03;;;14.20;99.90;;;;;;5082981;28;20933;-73
2021/09/04 03:46:46;;;;;;;28.23;18.17;;;14.20;99.90;;;;;;5082777;28;20484;-73
2021/09/04 03:49:13;;;;;;;28.63;16.93;;;14.20;99.90;;;;;;5082756;28;20454;-73
2021/09/04 03:51:41;;;;;;;23.50;16.00;;;14.20;99.90;;;;;;5082606;28;20485;-73
2021/09/04 03:54:08;;;;;;;25.60;16.80;;;14.20;99.90;;;;;;5082857;28;20468;-73
2021/09/04 03:56:35;;;;;;;22.07;16.40;;;14.20;99.90;;;;;;5082984;28;20466;-71
2021/09/04 03:59:02;;;;;;;23.37;15.63;;;14.20;99.90;;;;;;5081858;28;20454;-74
2021/09/04 04:01:30;;;;;;;26.40;17.70;;;14.20;99.90;;;;;;5081839;28;20454;-73
2021/09/04 04:03:56;;;;;;;29.73;18.50;;;14.20;99.90;;;;;;5082299;28;20594;-73
2021/09/04 04:06:23;;;;;;;26.75;17.10;;;14.10;99.90;;;;;;5082382;28;20466;-74
2021/09/04 04:08:50;;;;;;;30.13;18.70;;;14.10;99.90;;;;;;5081921;28;20200;-74
2021/09/04 04:11:16;;;;;;;31.60;19.63;;;14.10;99.90;;;;;;5082518;28;20480;-72
2021/09/04 04:13:43;;;;;;;28.02;16.75;;;14.10;99.90;;;;;;5082693;28;20461;-73
2021/09/04 04:16:10;;;;;;;25.17;18.02;;;14.00;99.90;;;;;;5083097;28;20261;-74
2021/09/04 04:18:38;;;;;;;28.10;18.00;;;14.00;99.90;;;;;;5082633;28;20208;-74
2021/09/04 04:21:05;;;;;;;32.07;18.63;;;14.10;99.90;;;;;;5082721;28;20464;-74
2021/09/04 04:23:32;;;;;;;32.30;18.87;;;14.00;99.90;;;;;;5083434;28;20462;-74
2021/09/04 04:25:59;;;;;;;31.23;19.10;;;14.10;99.90;;;;;;5081978;28;20458;-74
2021/09/04 04:28:29;;;;;;;34.10;20.23;;;14.10;99.90;;;;;;5080827;28;20941;-74
2021/09/04 04:30:56;;;;;;;30.37;20.40;;;14.00;99.90;;;;;;5081923;28;20525;-74
2021/09/04 04:33:22;;;;;;;29.60;18.70;;;14.00;99.90;;;;;;5080951;28;20482;-74
2021/09/04 04:35:52;;;;;;;31.33;19.70;;;14.00;99.90;;;;;;5080304;28;20600;-74
2021/09/04 04:38:18;;;;;;;31.63;18.97;;;14.00;99.90;;;;;;5080755;28;20911;-74
2021/09/04 04:40:45;;;;;;;26.40;18.25;;;14.00;99.90;;;;;;5081910;28;20833;-74
2021/09/04 04:43:12;;;;;;;30.10;19.80;;;13.90;99.90;;;;;;5082041;28;20567;-74
2021/09/04 04:45:39;;;;;;;30.00;19.40;;;13.90;99.90;;;;;;5081537;28;20462;-73
2021/09/04 04:48:05;;;;;;;31.60;19.03;;;13.90;99.90;;;;;;5081644;28;20594;-73
2021/09/04 04:50:32;;;;;;;41.63;18.90;;;13.80;99.90;;;;;;5078510;28;20455;-73
2021/09/04 04:53:01;;;;;;;36.97;19.20;;;13.80;99.90;;;;;;5079599;28;20486;-74
2021/09/04 04:55:28;;;;;;;24.70;17.67;;;13.80;99.90;;;;;;5078446;28;20458;-73
2021/09/04 04:57:54;;;;;;;31.50;20.30;;;13.70;99.90;;;;;;5078170;28;20525;-73
2021/09/04 05:00:21;;;;;;;29.95;20.10;;;13.70;99.90;;;;;;5078710;28;20454;-73
2021/09/04 05:02:48;;;;;;;32.87;20.37;;;13.60;99.90;;;;;;5078615;28;20210;-73
2021/09/04 05:05:15;;;;;;;32.60;18.75;;;13.60;99.90;;;;;;5078502;28;20454;-73
2021/09/04 05:07:41;;;;;;;41.27;18.83;;;13.60;99.90;;;;;;5079209;28;20253;-73
2021/09/04 05:10:10;;;;;;;29.50;17.47;;;13.60;99.90;;;;;;5079984;28;20471;-73
2021/09/04 05:12:37;;;;;;;26.63;17.40;;;13.50;99.90;;;;;;5077844;28;20474;-73
2021/09/04 05:15:05;;;;;;;24.17;16.30;;;13.50;99.90;;;;;;5078623;28;20516;-74
2021/09/04 05:17:33;;;;;;;27.00;17.47;;;13.40;99.90;;;;;;5078533;28;20462;-73
2021/09/04 05:20:05;;;;;;;28.53;18.37;;;13.30;99.90;;;;;;5078227;28;20459;-73
2021/09/04 05:22:34;;;;;;;31.13;16.50;;;13.20;99.90;;;;;;5077615;28;20989;-74
2021/09/04 05:25:01;;;;;;;30.63;17.93;;;13.10;99.90;;;;;;5078137;28;20469;-74
2021/09/04 05:27:29;;;;;;;28.50;19.00;;;13.00;99.90;;;;;;5078499;28;20464;-74
2021/09/04 05:29:57;;;;;;;31.93;18.50;;;13.00;99.90;;;;;;5078140;28;20829;-74
2021/09/04 05:32:24;;;;;;;24.63;17.57;;;13.00;99.90;;;;;;5078162;28;20547;-74
2021/09/04 05:34:54;;;;;;;29.20;15.97;;;13.00;99.90;;;;;;5077270;28;20919;-73
2021/09/04 05:37:20;;;;;;;26.13;15.80;;;13.00;99.90;;;;;;5074590;28;20565;-73
2021/09/04 05:39:48;;;;;;;32.17;17.63;;;13.00;99.90;;;;;;5074373;28;20919;-73
2021/09/04 05:42:15;;;;;;;26.70;16.80;;;13.00;99.90;;;;;;5074723;28;20954;-73
2021/09/04 05:44:43;;;;;;;23.90;15.00;;;13.10;99.90;;;;;;5074895;28;20465;-72
2021/09/04 05:47:09;;;;;;;29.33;18.40;;;13.10;99.90;;;;;;5073817;28;20454;-73
2021/09/04 05:49:36;;;;;;;24.70;16.53;;;13.10;99.90;;;;;;5075471;28;20466;-72
2021/09/04 05:52:03;;;;;;;25.60;16.33;;;13.10;99.90;;;;;;5074642;28;20477;-73
2021/09/04 05:54:30;;;;;;;24.40;15.18;;;13.20;99.90;;;;;;5074505;28;20200;-73
2021/09/04 05:56:57;;;;;;;21.90;15.23;;;13.30;99.90;;;;;;5076241;28;20277;-73
2021/09/04 05:59:25;;;;;;;24.70;15.20;;;13.40;99.90;;;;;;5075746;28;20459;-73
2021/09/04 06:01:53;;;;;;;22.33;14.40;;;13.50;99.90;;;;;;5075417;28;20215;-73
2021/09/04 06:04:20;;;;;;;19.47;13.67;;;13.50;99.90;;;;;;5075829;28;20480;-73
2021/09/04 06:06:46;;;;;;;26.00;15.40;;;13.60;99.90;;;;;;5075202;28;20480;-73
2021/09/04 06:09:13;;;;;;;20.07;14.20;;;13.60;99.90;;;;;;5074972;28;20465;-73
2021/09/04 06:11:40;;;;;;;21.37;14.40;;;13.60;99.90;;;;;;5075927;28;20458;-73
2021/09/04 06:14:07;;;;;;;27.13;14.60;;;13.70;99.90;;;;;;5075679;28;20454;-73
2021/09/04 06:16:33;;;;;;;19.40;13.70;;;13.60;99.90;;;;;;5076580;28;20481;-74
2021/09/04 06:19:01;;;;;;;20.63;13.87;;;13.50;99.90;;;;;;5075030;28;20461;-74
2021/09/04 06:21:30;;;;;;;19.80;13.40;;;13.50;99.90;;;;;;5075624;28;20466;-73
2021/09/04 06:23:57;;;;;;;20.97;14.40;;;13.60;99.90;;;;;;5074923;28;20450;-73
2021/09/04 06:26:24;;;;;;;22.70;15.73;;;13.60;99.90;;;;;;5075417;28;20463;-73
2021/09/04 06:28:52;;;;;;;19.87;14.47;;;13.70;99.90;;;;;;5075590;28;20830;-72
2021/09/04 06:31:18;;;;;;;19.87;14.63;;;13.70;99.90;;;;;;5075189;28;20457;-72
2021/09/04 06:33:45;;;;;;;23.27;15.90;;;13.70;99.90;;;;;;5075382;28;20481;-72
2021/09/04 06:36:13;;;;;;;19.87;14.37;;;13.70;99.90;;;;;;5075016;28;20488;-71
2021/09/04 06:38:40;;;;;;;22.40;16.60;;;13.70;99.90;;;;;;5074766;28;20466;-72
2021/09/04 06:41:07;;;;;;;24.00;15.17;;;13.70;99.90;;;;;;5074639;28;20481;-73
2021/09/04 06:43:33;;;;;;;21.27;13.90;;;13.80;99.90;;;;;;5075196;28;20482;-72
2021/09/04 06:46:00;;;;;;;21.47;15.53;;;13.90;99.90;;;;;;5074768;28;20490;-73
2021/09/04 06:48:27;;;;;;;22.40;14.97;;;14.00;99.90;;;;;;5075996;28;20469;-73
2021/09/04 06:50:53;;;;;;;23.40;15.73;;;14.10;99.90;;;;;;5075757;28;20489;-73
2021/09/04 06:53:21;;;;;;;20.45;13.80;;;14.20;99.90;;;;;;5075871;28;20551;-72
2021/09/04 06:55:48;;;;;;;18.60;13.40;;;14.30;99.90;;;;;;5081069;28;20211;-72
2021/09/04 06:58:15;;;;;;;18.07;13.17;;;14.30;99.90;;;;;;5089917;28;20570;-72
2021/09/04 07:00:42;;;;;;;20.03;13.80;;;14.30;99.90;;;;;;5090585;28;20458;-71
2021/09/04 07:03:08;;;;;;;20.70;13.47;;;14.20;99.90;;;;;;5091504;28;20831;-72
2021/09/04 07:05:37;;;;;;;21.07;14.43;;;14.20;99.90;;;;;;5090609;28;20454;-72
2021/09/04 07:08:05;;;;;;;18.80;14.20;;;14.10;99.90;;;;;;5090762;28;20455;-72
2021/09/04 07:10:33;;;;;;;17.27;13.77;;;14.10;99.90;;;;;;5091036;28;20975;-72
2021/09/04 07:13:00;;;;;;;19.40;13.67;;;14.20;99.90;;;;;;5088778;28;20238;-72
2021/09/04 07:15:27;;;;;;;20.17;13.43;;;14.20;99.90;;;;;;5087840;28;20480;-70
2021/09/04 07:17:56;;;;;;;16.83;12.60;;;14.10;99.90;;;;;;5089754;28;20828;-72
2021/09/04 07:20:23;;;;;;;19.90;14.00;;;14.10;99.90;;;;;;5087169;28;20462;-73
2021/09/04 07:22:50;;;;;;;19.27;12.53;;;14.00;99.90;;;;;;5089862;28;20454;-71
2021/09/04 07:25:17;;;;;;;19.57;13.97;;;14.10;99.90;;;;;;5088421;28;20914;-73
2021/09/04 07:27:45;;;;;;;19.10;13.47;;;14.10;99.90;;;;;;5090984;28;20458;-72
2021/09/04 07:30:12;;;;;;;19.13;13.50;;;14.30;99.90;;;;;;5091849;28;20831;-72
2021/09/04 07:32:41;;;;;;;19.57;13.50;;;14.40;99.90;;;;;;5092577;28;20978;-71
2021/09/04 07:35:08;;;;;;;21.67;13.43;;;14.50;99.90;;;;;;5090407;28;20458;-72
2021/09/04 07:37:35;;;;;;;17.67;11.77;;;14.50;99.90;;;;;;5084995;28;20470;-72
2021/09/04 07:40:02;;;;;;;19.40;13.30;;;14.60;99.90;;;;;;5089380;28;20500;-72
2021/09/04 07:42:29;;;;;;;18.90;13.17;;;14.80;99.90;;;;;;5090150;28;20450;-73
2021/09/04 07:44:57;;;;;;;17.93;13.30;;;14.80;99.90;;;;;;5092194;28;20454;-72
2021/09/04 07:47:23;;;;;;;15.37;11.40;;;14.90;99.90;;;;;;5092931;28;20515;-72
2021/09/04 07:49:50;;;;;;;17.38;12.85;;;14.90;99.90;;;;;;5091402;28;20457;-72
2021/09/04 07:52:17;;;;;;;17.77;11.90;;;15.00;99.90;;;;;;5092105;28;20204;-73
2021/09/04 07:54:44;;;;;;;20.80;11.98;;;15.10;99.90;;;;;;5089011;28;20454;-72
2021/09/04 07:57:10;;;;;;;19.00;12.40;;;15.10;99.90;;;;;;5089572;28;20204;-73
2021/09/04 07:59:37;;;;;;;18.70;13.00;;;15.00;99.90;;;;;;5087308;28;20462;-72
2021/09/04 08:02:05;;;;;;;18.00;12.30;;;15.00;99.90;;;;;;5084030;28;20458;-72
2021/09/04 08:04:32;;;;;;;15.70;11.33;;;14.90;99.90;;;;;;5082361;28;20919;-70
2021/09/04 08:06:59;;;;;;;17.40;11.80;;;14.80;99.90;;;;;;5079535;28;20494;-73
2021/09/04 08:09:25;;;;;;;20.07;12.70;;;14.70;99.90;;;;;;5079226;28;20466;-72
2021/09/04 08:11:52;;;;;;;17.93;12.63;;;14.70;99.90;;;;;;5082786;28;20458;-72
2021/09/04 08:14:19;;;;;;;20.13;12.57;;;14.80;99.90;;;;;;5086041;28;20474;-72
2021/09/04 08:16:48;;;;;;;20.33;12.60;;;14.80;99.90;;;;;;5087678;28;20520;-72
2021/09/04 08:19:17;;;;;;;16.77;11.80;;;14.80;99.90;;;;;;5089016;28;20448;-72
2021/09/04 08:21:43;;;;;;;19.73;12.20;;;15.00;99.90;;;;;;5083506;28;20461;-72
2021/09/04 08:24:10;;;;;;;19.37;11.70;;;15.10;99.90;;;;;;5085254;28;20780;-72
2021/09/04 08:26:37;;;;;;;18.47;11.77;;;15.20;99.90;;;;;;5084219;28;20450;-72
2021/09/04 08:29:04;;;;;;;16.17;11.07;;;15.30;99.90;;;;;;5087071;28;20458;-71
2021/09/04 08:31:30;;;;;;;19.63;12.50;;;15.40;99.90;;;;;;5086964;28;20816;-71
2021/09/04 08:33:57;;;;;;;15.27;10.87;;;15.50;99.90;;;;;;5085799;28;20231;-72
2021/09/04 08:36:25;;;;;;;18.20;12.00;;;15.60;99.90;;;;;;5089926;28;20450;-73
2021/09/04 08:38:52;;;;;;;18.97;11.90;;;15.80;99.90;;;;;;5087458;28;20506;-71
2021/09/04 08:41:19;;;;;;;21.93;10.60;;;15.90;99.90;;;;;;5081071;28;20478;-72
2021/09/04 08:43:45;;;;;;;21.70;11.40;;;16.00;99.90;;;;;;5082343;28;20451;-71
2021/09/04 08:46:14;;;;;;;16.87;10.87;;;16.00;99.90;;;;;;5079761;28;20467;-71
2021/09/04 08:48:45;;;;;;;16.07;12.00;;;16.10;99.90;;;;;;5080585;28;20501;-70
2021/09/04 08:51:15;;;;;;;18.03;10.60;;;16.10;99.90;;;;;;5083630;28;20439;-71
2021/09/04 08:53:43;;;;;;;16.07;9.87;;;16.20;99.90;;;;;;5083112;28;20486;-71
2021/09/04 08:56:10;;;;;;;13.68;9.98;;;16.20;99.90;;;;;;5089113;28;20786;-71
2021/09/04 08:58:37;;;;;;;14.67;10.10;;;16.40;99.90;;;;;;5087654;28;20207;-71
2021/09/04 09:01:15;;;;;;;18.10;10.90;;;16.60;99.90;;;;;;5089174;28;20827;-71
2021/09/04 09:03:45;;;;;;;20.20;10.25;;;16.70;99.90;;;;;;5090020;28;20435;-72
2021/09/04 09:06:12;;;;;;;16.10;10.07;;;16.80;99.90;;;;;;5086590;28;20260;-71
2021/09/04 09:08:44;;;;;;;14.93;10.83;;;17.00;99.90;;;;;;5088816;28;20462;-71
2021/09/04 09:11:11;;;;;;;13.43;9.70;;;17.10;99.90;;;;;;5089513;28;20576;-71
2021/09/04 09:13:47;;;;;;;15.90;10.83;;;17.10;99.90;;;;;;5089799;28;20808;-71
2021/09/04 09:16:15;;;;;;;20.92;10.65;;;17.20;99.90;;;;;;5090833;28;20438;-70
2021/09/04 09:18:42;;;;;;;15.63;10.20;;;17.30;99.90;;;;;;5090830;28;20214;-71
2021/09/04 09:21:09;;;;;;;19.43;10.97;;;17.40;99.90;;;;;;5088590;28;20787;-71
2021/09/04 09:23:36;;;;;;;14.43;9.47;;;17.50;99.90;;;;;;5088602;28;20469;-72
2021/09/04 09:26:11;;;;;;;14.07;9.63;;;17.50;99.90;;;;;;5090822;28;20791;-72
2021/09/04 09:28:39;;;;;;;18.70;9.70;;;17.50;99.90;;;;;;5090968;28;20488;-72
2021/09/04 09:31:06;;;;;;;17.33;9.50;;;17.50;99.90;;;;;;5090158;28;20446;-72
2021/09/04 09:33:33;;;;;;;15.50;11.03;;;17.60;99.90;;;;;;5090505;28;20581;-72
2021/09/04 09:36:03;;;;;;;18.80;10.90;;;17.60;99.90;;;;;;5089517;28;20454;-73
2021/09/04 09:38:33;;;;;;;16.80;10.43;;;17.60;99.90;;;;;;5089590;28;20454;-72
2021/09/04 09:41:03;;;;;;;17.43;10.87;;;17.60;99.90;;;;;;5088157;28;20546;-72
2021/09/04 09:43:35;;;;;;;16.92;10.88;;;17.50;99.90;;;;;;5088784;28;20464;-72
2021/09/04 09:46:04;;;;;;;13.47;9.50;;;17.50;99.90;;;;;;5089063;28;20184;-72
2021/09/04 09:48:32;;;;;;;17.20;10.20;;;17.40;99.90;;;;;;5089042;28;20522;-71
2021/09/04 09:51:01;;;;;;;16.80;10.30;;;17.50;99.90;;;;;;5088022;28;20549;-72
2021/09/04 09:53:29;;;;;;;17.50;12.27;;;17.60;99.90;;;;;;5087900;28;20482;-73
2021/09/04 09:55:57;;;;;;;13.23;9.40;;;17.70;99.90;;;;;;5087208;28;20267;-72
2021/09/04 09:58:31;;;;;;;16.50;10.60;;;17.60;99.90;;;;;;5088196;28;20769;-72
2021/09/04 10:00:59;;;;;;;16.70;10.20;;;17.50;99.90;;;;;;5087190;28;20563;-72
2021/09/04 10:03:27;;;;;;;14.53;10.40;;;17.40;99.90;;;;;;5087711;28;20450;-73
2021/09/04 10:05:55;;;;;;;15.20;10.03;;;17.30;99.90;;;;;;5088207;28;20485;-73
2021/09/04 10:08:23;;;;;;;18.90;10.60;;;17.20;99.90;;;;;;5086305;28;20451;-73
2021/09/04 10:10:50;;;;;;;18.27;10.83;;;17.10;99.90;;;;;;5087188;28;20468;-73
2021/09/04 10:13:17;;;;;;;17.60;10.97;;;17.10;99.90;;;;;;5086618;28;20486;-72
2021/09/04 10:15:48;;;;;;;12.40;9.23;;;17.20;99.90;;;;;;5086074;28;20477;-73
2021/09/04 10:18:15;;;;;;;15.50;9.03;;;17.30;99.90;;;;;;5087019;28;20852;-73
2021/09/04 10:20:45;;;;;;;17.73;9.63;;;17.40;99.90;;;;;;5087864;28;20458;-74
2021/09/04 10:23:20;;;;;;;15.83;11.03;;;17.40;99.90;;;;;;5086890;28;20469;-71
2021/09/04 10:25:47;;;;;;;20.27;11.17;;;17.50;99.90;;;;;;5086463;28;20439;-72
2021/09/04 10:28:14;;;;;;;15.30;10.00;;;17.40;99.90;;;;;;5078740;28;20454;-76
2021/09/04 10:30:43;;;;;;;14.47;10.60;;;17.40;99.90;;;;;;5077727;28;20458;-74
2021/09/04 10:33:17;;;;;;;18.80;10.02;;;17.40;99.90;;;;;;5079815;28;20484;-73
2021/09/04 10:35:51;;;;;;;15.73;10.27;;;17.40;99.90;;;;;;5083851;28;20200;-73
2021/09/04 10:38:35;;;;;;;15.98;10.35;;;17.40;99.90;;;;;;5081725;28;20502;-74
2021/09/04 10:41:22;;;;;;;15.27;10.10;;;17.30;99.90;;;;;;5083817;28;20231;-72
2021/09/04 10:43:51;;;;;;;18.03;10.73;;;17.40;99.90;;;;;;5083765;28;20200;-73
2021/09/04 10:46:19;;;;;;;19.13;10.73;;;17.60;99.90;;;;;;5082024;28;20454;-72
2021/09/04 10:48:57;;;;;;;16.23;11.00;;;17.60;99.90;;;;;;5079958;28;20453;-74
2021/09/04 10:51:45;;;;;;;15.07;9.80;;;17.60;99.90;;;;;;5078680;28;20443;-74
2021/09/04 10:54:12;;;;;;;16.00;10.60;;;17.60;99.90;;;;;;5078118;28;20477;-74
2021/09/04 10:56:40;;;;;;;16.80;10.50;;;17.50;99.90;;;;;;5077349;28;20915;-74
2021/09/04 10:59:07;;;;;;;14.70;10.77;;;17.50;99.90;;;;;;5077874;28;20533;-73
2021/09/04 11:01:53;;;;;;;18.93;10.83;;;17.50;99.90;;;;;;5077424;28;20495;-73
2021/09/04 11:04:21;;;;;;;20.33;11.20;;;17.50;99.90;;;;;;5077466;28;20513;-73
2021/09/04 11:06:49;;;;;;;17.58;10.65;;;17.50;99.90;;;;;;5077597;28;20458;-73
2021/09/04 11:09:17;;;;;;;16.53;11.40;;;17.50;99.90;;;;;;5077188;28;20519;-74
2021/09/04 11:11:44;;;;;;;17.35;10.75;;;17.50;99.90;;;;;;5076791;28;20660;-77
2021/09/04 11:14:22;;;;;;;18.92;11.40;;;17.50;99.90;;;;;;5077295;28;20799;-73
2021/09/04 11:16:51;;;;;;;15.80;12.00;;;17.60;99.90;;;;;;5077184;28;20196;-73
2021/09/04 11:19:25;;;;;;;18.40;11.90;;;17.70;99.90;;;;;;5077029;28;20914;-74
2021/09/04 11:22:00;;;;;;;20.73;12.10;;;17.80;99.90;;;;;;5077096;28;20478;-74
2021/09/04 11:24:30;;;;;;;18.07;12.67;;;17.80;99.90;;;;;;5076911;28;20913;-74
2021/09/04 11:27:02;;;;;;;19.90;12.23;;;17.90;99.90;;;;;;5077385;28;20523;-73
2021/09/04 11:29:36;;;;;;;20.42;10.98;;;17.90;99.90;;;;;;5077452;28;20439;-74
2021/09/04 11:32:03;;;;;;;18.43;11.70;;;18.10;99.90;;;;;;5076608;28;20188;-73
2021/09/04 11:34:45;;;;;;;16.83;11.65;;;18.20;99.90;;;;;;5077400;28;20481;-73
2021/09/04 11:37:29;;;;;;;16.70;12.40;;;18.40;99.90;;;;;;5077792;28;20184;-74
2021/09/04 11:40:02;;;;;;;13.50;10.80;;;18.60;99.90;;;;;;5076996;28;20489;-73
2021/09/04 11:42:30;;;;;;;14.87;10.77;;;18.60;99.90;;;;;;5076531;28;20443;-74
2021/09/04 11:44:59;;;;;;;17.47;11.37;;;18.60;99.90;;;;;;5076015;28;20454;-74
2021/09/04 11:47:28;;;;;;;18.23;10.60;;;18.60;99.90;;;;;;5076720;28;20462;-74
2021/09/04 11:49:57;;;;;;;13.80;10.03;;;18.70;99.90;;;;;;5076921;28;20200;-74
2021/09/04 11:52:28;;;;;;;17.13;11.40;;;18.70;99.90;;;;;;5076661;28;20458;-73
2021/09/04 11:55:12;;;;;;;19.57;10.30;;;18.80;99.90;;;;;;5076751;28;20501;-74
2021/09/04 11:57:40;;;;;;;17.20;10.30;;;19.00;99.90;;;;;;5076805;28;20447;-74
2021/09/04 12:00:15;;;;;;;16.13;9.63;;;19.30;99.90;;;;;;5076297;28;20918;-74
2021/09/04 12:02:46;;;;;;;19.87;11.43;;;19.60;99.90;;;;;;5076958;28;20462;-74
2021/09/04 12:05:16;;;;;;;16.27;12.07;;;19.60;99.90;;;;;;5076617;28;20430;-74
2021/09/04 12:07:43;;;;;;;15.07;10.90;;;19.50;99.90;;;;;;5076479;28;20465;-74
2021/09/04 12:10:12;;;;;;;19.00;11.15;;;19.40;99.90;;;;;;5076314;28;20919;-74
2021/09/04 12:12:40;;;;;;;18.53;10.50;;;19.50;99.90;;;;;;5076097;28;20269;-73
2021/09/04 12:15:11;;;;;;;14.67;10.60;;;19.60;99.90;;;;;;5075879;28;20639;-74
2021/09/04 12:17:48;;;;;;;17.40;11.40;;;19.70;99.90;;;;;;5076872;28;20496;-75
2021/09/04 12:20:17;;;;;;;15.47;12.10;;;19.90;99.90;;;;;;5076855;28;20451;-72
2021/09/04 12:22:44;;;;;;;17.73;11.73;;;20.00;99.90;;;;;;5076984;28;20454;-75
2021/09/04 12:25:30;;;;;;;15.27;10.10;;;20.00;99.90;;;;;;5076713;28;20458;-75
2021/09/04 12:28:03;;;;;;;16.37;11.27;;;20.00;99.90;;;;;;5080204;28;20461;-72
2021/09/04 12:30:30;;;;;;;15.63;10.17;;;19.90;99.90;;;;;;5081880;28;20435;-73
2021/09/04 12:33:07;;;;;;;15.73;9.83;;;19.80;99.90;;;;;;5075695;28;20458;-73